createdAt,value
2023-01-04T00:00:51.534Z,8.09
2023-01-04T00:03:18.053Z,8.18
2023-01-04T00:05:44.576Z,8.23
2023-01-04T00:08:12.934Z,8.26
2023-01-04T00:10:39.348Z,8.28
2023-01-04T00:13:05.737Z,8.36
2023-01-04T00:15:33.642Z,8.36
2023-01-04T00:18:00.300Z,8.42
2023-01-04T00:20:27.040Z,8.42
2023-01-04T00:22:53.450Z,8.49
2023-01-04T00:25:20.092Z,8.50
2023-01-04T00:27:47.393Z,8.50
2023-01-04T00:30:13.819Z,8.53
2023-01-04T00:32:40.209Z,8.54
2023-01-04T00:35:07.779Z,8.56
2023-01-04T00:37:34.162Z,8.57
2023-01-04T00:40:01.004Z,8.64
2023-01-04T00:42:27.497Z,8.63
2023-01-04T00:44:54.512Z,8.68
2023-01-04T00:47:20.918Z,8.71
2023-01-04T00:49:48.656Z,8.77
2023-01-04T00:52:15.259Z,8.80
2023-01-04T00:54:43.550Z,8.80
2023-01-04T01:00:37.663Z,8.56
2023-01-04T01:05:53.711Z,8.53
2023-01-04T01:08:25.870Z,8.47
2023-01-04T01:10:53.488Z,8.47
2023-01-04T01:16:10.896Z,8.39
2023-01-04T01:18:39.147Z,8.34
2023-01-04T01:21:14.669Z,8.29
2023-01-04T01:23:41.629Z,8.23
2023-01-04T01:26:11.726Z,8.16
2023-01-04T01:28:39.754Z,8.22
2023-01-04T01:31:08.812Z,8.22
2023-01-04T01:33:43.815Z,8.18
2023-01-04T01:36:12.211Z,8.15
2023-01-04T01:38:39.430Z,8.22
2023-01-04T01:41:07.508Z,8.19
2023-01-04T01:44:02.820Z,8.19
2023-01-04T01:46:44.330Z,8.13
2023-01-04T01:49:18.419Z,8.09
2023-01-04T01:51:48.436Z,8.06
2023-01-04T01:54:21.602Z,8.07
2023-01-04T01:56:53.945Z,8.03
2023-01-04T01:59:22.669Z,8.01
2023-01-04T02:01:49.363Z,8.01
2023-01-04T02:04:17.395Z,7.99
2023-01-04T02:06:48.605Z,7.96
2023-01-04T02:09:17.194Z,7.96
2023-01-04T02:11:43.973Z,7.92
2023-01-04T02:14:29.783Z,7.89
2023-01-04T02:16:56.358Z,7.93
2023-01-04T02:19:47.561Z,7.93
2023-01-04T02:22:51.950Z,7.88
2023-01-04T02:25:56.382Z,7.89
2023-01-04T02:28:50.615Z,7.91
2023-01-04T02:31:33.278Z,7.88
2023-01-04T02:34:23.153Z,7.91
2023-01-04T02:36:59.099Z,7.89
2023-01-04T02:39:46.730Z,7.88
2023-01-04T02:42:46.939Z,7.86
2023-01-04T02:45:17.684Z,7.93
2023-01-04T02:48:03.061Z,7.95
2023-01-04T02:50:37.166Z,7.96
2023-01-04T02:53:20.858Z,7.99
2023-01-04T02:56:10.229Z,8.02
2023-01-04T02:59:19.944Z,8.03
2023-01-04T03:02:25.223Z,7.99
2023-01-04T03:05:51.708Z,8.03
2023-01-04T03:08:36.486Z,7.99
2023-01-04T03:11:32.742Z,8.01
2023-01-04T03:14:32.228Z,8.07
2023-01-04T03:17:06.990Z,8.13
2023-01-04T03:19:52.034Z,8.18
2023-01-04T03:22:42.457Z,8.32
2023-01-04T03:25:29.226Z,8.46
2023-01-04T03:28:16.798Z,8.71
2023-01-04T03:31:15.488Z,8.98
2023-01-04T03:34:01.207Z,9.18
2023-01-04T03:36:51.497Z,9.28
2023-01-04T03:39:57.684Z,9.36
2023-01-04T03:43:02.584Z,9.52
2023-01-04T03:45:53.569Z,9.53
2023-01-04T03:48:31.909Z,9.59
2023-01-04T03:51:05.602Z,9.57
2023-01-04T03:53:43.499Z,9.62
2023-01-04T03:56:12.092Z,9.67
2023-01-04T03:58:39.479Z,9.71
2023-01-04T04:01:07.119Z,9.70
2023-01-04T04:03:52.193Z,9.69
2023-01-04T04:06:38.713Z,9.74
2023-01-04T04:09:05.339Z,9.64
2023-01-04T04:11:32.670Z,9.64
2023-01-04T04:14:00.781Z,9.70
2023-01-04T04:16:27.741Z,9.73
2023-01-04T04:18:54.465Z,9.74
2023-01-04T04:21:20.938Z,9.70
2023-01-04T04:23:47.493Z,9.66
2023-01-04T04:26:17.314Z,9.54
2023-01-04T04:28:44.551Z,9.52
2023-01-04T04:31:11.308Z,9.57
2023-01-04T04:33:37.973Z,9.69
2023-01-04T04:36:07.315Z,9.77
2023-01-04T04:38:33.906Z,9.84
2023-01-04T04:41:22.276Z,9.80
2023-01-04T04:43:48.750Z,9.83
2023-01-04T04:46:15.275Z,9.80
2023-01-04T04:48:44.390Z,9.84
2023-01-04T04:51:11.095Z,9.90
2023-01-04T04:53:37.493Z,9.94
2023-01-04T04:56:04.241Z,10.00
2023-01-04T04:58:31.935Z,9.98
2023-01-04T05:00:58.410Z,9.95
2023-01-04T05:03:25.233Z,9.91
2023-01-04T05:05:51.986Z,9.98
2023-01-04T05:08:20.350Z,9.97
2023-01-04T05:10:47.034Z,9.94
2023-01-04T05:13:13.596Z,9.98
2023-01-04T05:15:45.561Z,9.98
2023-01-04T05:18:14.152Z,10.02
2023-01-04T05:20:41.400Z,10.01
2023-01-04T05:23:08.600Z,10.04
2023-01-04T05:25:35.115Z,10.07
2023-01-04T05:28:03.153Z,10.07
2023-01-04T05:30:48.429Z,10.14
2023-01-04T05:33:14.862Z,10.12
2023-01-04T05:35:41.280Z,10.14
2023-01-04T05:38:09.439Z,10.22
2023-01-04T05:40:35.843Z,10.24
2023-01-04T05:43:02.347Z,10.26
2023-01-04T05:45:29.219Z,10.26
2023-01-04T05:47:56.039Z,10.39
2023-01-04T05:50:23.800Z,10.31
2023-01-04T05:52:53.687Z,10.35
2023-01-04T05:55:20.792Z,10.38
2023-01-04T05:57:47.421Z,10.35
2023-01-04T06:00:14.524Z,10.35
2023-01-04T06:02:42.528Z,10.38
2023-01-04T06:05:10.568Z,10.42
2023-01-04T06:07:39.863Z,10.42
2023-01-04T06:10:07.725Z,10.42
2023-01-04T06:12:34.351Z,10.48
2023-01-04T06:15:01.123Z,10.42
2023-01-04T06:17:28.105Z,10.53
2023-01-04T06:19:54.586Z,10.52
2023-01-04T06:22:21.207Z,10.56
2023-01-04T06:24:48.895Z,10.55
2023-01-04T06:27:15.511Z,10.52
2023-01-04T06:29:42.253Z,10.49
2023-01-04T06:32:08.665Z,10.46
2023-01-04T06:34:35.211Z,10.46
2023-01-04T06:37:02.920Z,10.50
2023-01-04T06:39:29.555Z,10.52
2023-01-04T06:42:01.948Z,10.53
2023-01-04T06:44:32.123Z,10.59
2023-01-04T06:46:58.525Z,10.58
2023-01-04T06:49:24.901Z,10.63
2023-01-04T06:51:51.334Z,10.68
2023-01-04T06:54:17.753Z,10.69
2023-01-04T06:56:44.262Z,10.68
2023-01-04T06:59:10.755Z,10.72
2023-01-04T07:01:37.448Z,10.76
2023-01-04T07:04:04.137Z,10.76
2023-01-04T07:06:30.613Z,10.81
2023-01-04T07:08:56.981Z,10.80
2023-01-04T07:11:23.427Z,10.86
2023-01-04T07:13:49.939Z,10.79
2023-01-04T07:16:16.433Z,10.83
2023-01-04T07:18:42.950Z,10.77
2023-01-04T07:21:09.334Z,10.75
2023-01-04T07:23:35.941Z,10.89
2023-01-04T07:26:03.332Z,10.96
2023-01-04T07:28:48.781Z,10.99
2023-01-04T07:32:36.154Z,11.06
2023-01-04T07:35:02.860Z,10.99
2023-01-04T07:37:29.287Z,11.01
2023-01-04T07:39:55.850Z,11.16
2023-01-04T07:42:23.601Z,11.24
2023-01-04T07:44:50.008Z,11.23
2023-01-04T07:47:16.598Z,11.23
2023-01-04T07:49:43.068Z,11.30
2023-01-04T07:52:09.460Z,11.26
2023-01-04T07:54:37.487Z,11.30
2023-01-04T07:57:04.033Z,11.37
2023-01-04T07:59:30.466Z,11.32
2023-01-04T08:01:57.032Z,11.41
2023-01-04T08:04:28.352Z,11.37
2023-01-04T08:06:59.471Z,11.38
2023-01-04T08:09:28.152Z,11.31
2023-01-04T08:11:54.713Z,11.38
2023-01-04T08:14:22.336Z,11.39
2023-01-04T08:16:50.092Z,11.38
2023-01-04T08:19:21.650Z,11.39
2023-01-04T08:21:48.458Z,11.45
2023-01-04T08:24:17.665Z,11.45
2023-01-04T08:26:44.784Z,11.55
2023-01-04T08:29:11.709Z,11.52
2023-01-04T08:31:38.922Z,11.55
2023-01-04T08:34:07.262Z,11.55
2023-01-04T08:36:49.034Z,11.55
2023-01-04T08:39:15.618Z,11.59
2023-01-04T08:42:04.135Z,11.59
2023-01-04T08:44:37.527Z,11.58
2023-01-04T08:47:04.272Z,11.59
2023-01-04T08:49:30.787Z,11.62
2023-01-04T08:51:57.255Z,11.65
2023-01-04T08:54:23.873Z,11.66
2023-01-04T08:56:50.336Z,11.63
2023-01-04T08:59:16.811Z,11.62
2023-01-04T09:01:43.471Z,11.63
2023-01-04T09:04:10.103Z,11.62
2023-01-04T09:06:38.287Z,11.62
2023-01-04T09:09:05.364Z,11.62
2023-01-04T09:11:33.262Z,11.65
2023-01-04T09:14:09.483Z,11.72
2023-01-04T09:16:39.409Z,11.74
2023-01-04T09:19:06.306Z,11.81
2023-01-04T09:21:32.821Z,11.79
2023-01-04T09:23:59.378Z,11.78
2023-01-04T09:26:26.271Z,11.79
2023-01-04T09:28:55.050Z,11.81
2023-01-04T09:31:27.103Z,11.82
2023-01-04T09:36:41.525Z,11.86
2023-01-04T09:39:09.177Z,11.89
2023-01-04T09:42:12.042Z,11.96
2023-01-04T09:47:42.920Z,12.07
2023-01-04T09:50:22.530Z,12.09
2023-01-04T09:53:10.697Z,12.38
2023-01-04T09:55:46.936Z,12.50
2023-01-04T09:58:49.993Z,12.44
2023-01-04T10:01:25.947Z,12.50
2023-01-04T10:04:14.912Z,12.50
2023-01-04T10:06:41.471Z,12.46
2023-01-04T10:09:13.500Z,12.53
2023-01-04T10:11:54.122Z,12.55
2023-01-04T10:14:44.849Z,12.63
2023-01-04T10:17:44.608Z,12.48
2023-01-04T10:23:47.074Z,12.55
2023-01-04T10:26:17.810Z,12.50
2023-01-04T10:28:53.245Z,12.53
2023-01-04T10:31:39.669Z,12.61
2023-01-04T10:34:24.590Z,12.54
2023-01-04T10:36:56.785Z,12.23
2023-01-04T10:39:32.520Z,12.10
2023-01-04T10:42:08.804Z,11.96
2023-01-04T10:45:06.614Z,11.97
2023-01-04T10:47:56.177Z,12.05
2023-01-04T10:50:29.744Z,12.09
2023-01-04T10:53:01.780Z,12.07
2023-01-04T10:55:37.145Z,12.16
2023-01-04T10:58:28.154Z,12.17
2023-01-04T11:01:08.477Z,12.14
2023-01-04T11:03:53.543Z,12.05
2023-01-04T11:06:26.695Z,11.93
2023-01-04T11:09:02.143Z,11.74
2023-01-04T11:11:36.122Z,11.70
2023-01-04T11:14:03.842Z,11.66
2023-01-04T11:16:30.852Z,11.69
2023-01-04T11:18:58.269Z,11.72
2023-01-04T11:21:33.864Z,11.81
2023-01-04T11:24:30.301Z,11.82
2023-01-04T11:26:54.386Z,11.58
2023-01-04T11:29:35.191Z,11.54
2023-01-04T11:32:14.204Z,11.52
2023-01-04T11:34:48.368Z,11.59
2023-01-04T11:37:26.306Z,11.62
2023-01-04T11:40:10.545Z,11.62
2023-01-04T11:42:37.048Z,11.66
2023-01-04T11:45:04.189Z,11.70
2023-01-04T11:47:33.387Z,11.74
2023-01-04T11:49:59.958Z,11.76
2023-01-04T11:52:33.909Z,11.82
2023-01-04T11:55:27.722Z,11.92
2023-01-04T11:58:15.242Z,11.93
2023-01-04T12:00:57.236Z,11.96
2023-01-04T12:03:30.084Z,12.02
2023-01-04T12:05:58.038Z,12.13
2023-01-04T12:08:37.459Z,12.17
2023-01-04T12:11:05.933Z,12.20
2023-01-04T12:13:34.036Z,12.26
2023-01-04T12:16:25.781Z,12.23
2023-01-04T12:18:54.383Z,12.23
2023-01-04T12:21:23.417Z,12.23
2023-01-04T12:23:51.702Z,12.28
2023-01-04T12:26:21.881Z,12.51
2023-01-04T12:28:53.702Z,12.67
2023-01-04T12:31:23.159Z,12.95
2023-01-04T12:33:54.135Z,12.96
2023-01-04T12:36:57.525Z,13.16
2023-01-04T12:39:39.122Z,13.53
2023-01-04T12:42:18.586Z,13.63
2023-01-04T12:44:51.617Z,13.58
2023-01-04T12:47:36.528Z,13.64
2023-01-04T12:50:13.711Z,13.60
2023-01-04T12:53:10.667Z,13.43
2023-01-04T12:55:42.007Z,13.29
2023-01-04T13:01:25.779Z,13.48
2023-01-04T13:04:02.591Z,13.50
2023-01-04T13:06:36.928Z,13.50
2023-01-04T13:09:09.083Z,13.51
2023-01-04T13:11:58.614Z,13.50
2023-01-04T13:14:36.039Z,13.53
2023-01-04T13:17:22.970Z,13.51
2023-01-04T13:19:50.117Z,13.51
2023-01-04T13:22:26.582Z,13.53
2023-01-04T13:24:57.616Z,13.44
2023-01-04T13:27:25.089Z,13.30
2023-01-04T13:29:52.434Z,13.34
2023-01-04T13:32:29.180Z,13.33
2023-01-04T13:35:14.781Z,13.13
2023-01-04T13:37:46.669Z,13.16
2023-01-04T13:40:36.193Z,13.19
2023-01-04T13:43:17.718Z,13.32
2023-01-04T13:46:12.086Z,13.32
2023-01-04T13:48:42.385Z,13.39
2023-01-04T13:51:30.657Z,13.37
2023-01-04T13:54:06.581Z,13.43
2023-01-04T13:56:34.610Z,13.44
2023-01-04T13:59:01.405Z,13.47
2023-01-04T14:01:32.349Z,13.51
2023-01-04T14:04:04.904Z,13.54
2023-01-04T14:06:41.027Z,13.60
2023-01-04T14:09:16.427Z,13.60
2023-01-04T14:12:06.661Z,13.57
2023-01-04T14:15:16.024Z,13.58
2023-01-04T14:17:51.062Z,13.64
2023-01-04T14:20:20.309Z,13.64
2023-01-04T14:22:46.655Z,13.74
2023-01-04T14:25:34.505Z,13.70
2023-01-04T14:28:19.806Z,13.68
2023-01-04T14:30:52.162Z,13.87
2023-01-04T14:33:23.217Z,13.85
2023-01-04T14:36:07.919Z,13.84
2023-01-04T14:38:59.151Z,13.90
2023-01-04T14:41:33.179Z,13.94
2023-01-04T14:43:59.587Z,13.90
2023-01-04T14:46:30.047Z,13.97
2023-01-04T14:48:56.628Z,13.94
2023-01-04T14:51:35.396Z,13.97
2023-01-04T14:54:01.897Z,13.87
2023-01-04T14:56:28.327Z,13.88
2023-01-04T14:58:56.301Z,13.88
2023-01-04T15:01:22.795Z,13.83
2023-01-04T15:03:49.377Z,13.87
2023-01-04T15:06:15.916Z,13.84
2023-01-04T15:08:42.457Z,13.88
2023-01-04T15:11:13.830Z,13.85
2023-01-04T15:13:40.660Z,13.81
2023-01-04T15:16:12.506Z,13.81
2023-01-04T15:18:42.756Z,13.80
2023-01-04T15:21:09.694Z,13.75
2023-01-04T15:23:36.920Z,13.73
2023-01-04T15:26:09.700Z,13.73
2023-01-04T15:28:37.265Z,13.71
2023-01-04T15:31:09.850Z,13.68
2023-01-04T15:33:36.871Z,13.63
2023-01-04T15:36:13.618Z,13.67
2023-01-04T15:38:42.214Z,13.58
2023-01-04T15:41:32.335Z,13.54
2023-01-04T15:43:58.888Z,13.56
2023-01-04T15:46:25.457Z,13.54
2023-01-04T15:48:51.976Z,13.46
2023-01-04T15:51:19.712Z,13.46
2023-01-04T15:53:46.255Z,13.42
2023-01-04T15:56:13.095Z,13.40
2023-01-04T15:58:39.908Z,13.16
2023-01-04T16:01:14.585Z,12.86
2023-01-04T16:03:41.871Z,12.54
2023-01-04T16:06:11.188Z,12.26
2023-01-04T16:08:37.856Z,12.09
2023-01-04T16:11:16.712Z,11.97
2023-01-04T16:13:44.759Z,11.89
2023-01-04T16:16:11.638Z,11.92
2023-01-04T16:18:38.579Z,11.96
2023-01-04T16:21:07.860Z,12.03
2023-01-04T16:23:35.592Z,12.10
2023-01-04T16:26:11.306Z,12.14
2023-01-04T16:28:37.999Z,12.14
2023-01-04T16:31:08.161Z,12.34
2023-01-04T16:33:35.823Z,12.46
2023-01-04T16:36:08.519Z,12.60
2023-01-04T16:38:39.972Z,12.72
2023-01-04T16:41:10.117Z,12.78
2023-01-04T16:43:48.681Z,12.88
2023-01-04T16:46:22.265Z,12.92
2023-01-04T16:48:57.075Z,12.85
2023-01-04T16:51:25.712Z,12.86
2023-01-04T16:53:53.869Z,12.79
2023-01-04T16:56:23.090Z,12.65
2023-01-04T16:58:50.121Z,12.53
2023-01-04T17:01:23.012Z,12.51
2023-01-04T17:03:51.152Z,12.44
2023-01-04T17:06:20.952Z,12.31
2023-01-04T17:08:50.186Z,12.33
2023-01-04T17:14:12.762Z,12.43
2023-01-04T17:16:40.635Z,12.54
2023-01-04T17:19:07.241Z,12.63
2023-01-04T17:21:35.083Z,12.67
2023-01-04T17:24:02.261Z,12.76
2023-01-04T17:26:30.900Z,12.88
2023-01-04T17:28:59.234Z,12.79
2023-01-04T17:31:31.920Z,12.86
2023-01-04T17:33:58.875Z,12.89
2023-01-04T17:36:25.573Z,12.86
2023-01-04T17:38:52.240Z,12.95
2023-01-04T17:41:23.962Z,12.93
2023-01-04T17:43:57.509Z,12.88
2023-01-04T17:46:25.136Z,12.86
2023-01-04T17:49:20.593Z,12.92
2023-01-04T17:51:39.848Z,12.92
2023-01-04T17:54:08.177Z,12.92
2023-01-04T17:56:36.849Z,12.86
2023-01-04T17:59:06.588Z,12.86
2023-01-04T18:01:34.818Z,12.95
2023-01-04T18:04:02.493Z,13.03
2023-01-04T18:06:34.982Z,12.98
2023-01-04T18:09:02.717Z,12.86
2023-01-04T18:11:29.333Z,12.98
2023-01-04T18:13:55.828Z,12.93
2023-01-04T18:16:26.599Z,12.92
2023-01-04T18:18:54.601Z,12.96
2023-01-04T18:21:28.561Z,12.98
2023-01-04T18:29:36.365Z,12.96
2023-01-04T18:32:02.975Z,12.93
2023-01-04T18:34:29.539Z,12.91
2023-01-04T18:36:55.926Z,12.88
2023-01-04T18:39:22.596Z,12.89
2023-01-04T18:41:49.066Z,12.82
2023-01-04T18:44:32.834Z,12.95
2023-01-04T18:47:00.162Z,13.00
2023-01-04T18:49:26.550Z,13.02
2023-01-04T18:51:53.677Z,12.99
2023-01-04T18:57:37.794Z,12.98
2023-01-04T19:00:09.364Z,13.05
2023-01-04T19:02:36.114Z,13.06
2023-01-04T19:05:02.818Z,13.11
2023-01-04T19:07:29.254Z,13.09
2023-01-04T19:09:55.698Z,13.06
2023-01-04T19:12:22.109Z,13.07
2023-01-04T19:14:49.736Z,13.02
2023-01-04T19:17:17.047Z,13.03
2023-01-04T19:19:43.455Z,13.05
2023-01-04T19:22:09.904Z,13.03
2023-01-04T19:24:36.543Z,13.00
2023-01-04T19:27:03.362Z,13.03
2023-01-04T19:29:30.978Z,13.02
2023-01-04T19:31:57.424Z,13.11
2023-01-04T19:34:23.935Z,13.06
2023-01-04T19:36:50.542Z,13.03
2023-01-04T19:39:17.035Z,13.03
2023-01-04T19:41:43.593Z,13.03
2023-01-04T19:44:11.857Z,13.05
2023-01-04T19:46:39.005Z,13.06
2023-01-04T19:49:12.503Z,13.03
2023-01-04T19:51:43.607Z,13.03
2023-01-04T19:54:10.402Z,13.07
2023-01-04T19:56:36.800Z,13.07
2023-01-04T19:59:03.218Z,13.06
2023-01-04T20:01:29.684Z,13.02
2023-01-04T20:03:56.907Z,13.06
2023-01-04T20:06:23.849Z,13.07
2023-01-04T20:08:50.298Z,13.16
2023-01-04T20:11:16.938Z,13.22
2023-01-04T20:13:43.653Z,13.12
2023-01-04T20:16:10.801Z,13.11
2023-01-04T20:18:37.613Z,13.07
2023-01-04T20:21:12.803Z,13.09
2023-01-04T20:23:40.093Z,13.09
2023-01-04T20:26:16.196Z,13.11
2023-01-04T20:28:45.753Z,13.07
2023-01-04T20:31:15.464Z,13.03
2023-01-04T20:33:41.959Z,13.00
2023-01-04T20:36:15.563Z,13.05
2023-01-04T20:38:44.194Z,13.02
2023-01-04T20:41:17.291Z,13.03
2023-01-04T20:43:45.231Z,13.00
2023-01-04T20:46:17.565Z,12.98
2023-01-04T20:48:45.005Z,12.89
2023-01-04T20:51:15.346Z,12.84
2023-01-04T20:53:43.349Z,12.85
2023-01-04T20:56:18.796Z,12.81
2023-01-04T20:58:46.538Z,12.82
2023-01-04T21:01:14.662Z,12.78
2023-01-04T21:03:41.686Z,12.79
2023-01-04T21:06:14.152Z,12.78
2023-01-04T21:08:41.736Z,12.76
2023-01-04T21:11:09.328Z,12.75
2023-01-04T21:13:35.815Z,12.72
2023-01-04T21:16:02.425Z,12.74
2023-01-04T21:18:28.994Z,12.74
2023-01-04T21:20:55.618Z,12.72
2023-01-04T21:23:25.175Z,12.67
2023-01-04T21:25:52.494Z,12.64
2023-01-04T21:28:20.685Z,12.67
2023-01-04T21:30:48.034Z,12.63
2023-01-04T21:33:15.678Z,12.61
2023-01-04T21:35:42.705Z,12.64
2023-01-04T21:38:10.385Z,12.61
2023-01-04T21:40:39.623Z,12.61
2023-01-04T21:43:06.751Z,12.64
2023-01-04T21:45:33.136Z,12.63
2023-01-04T21:47:59.666Z,12.72
2023-01-04T21:50:30.483Z,12.72
2023-01-04T21:52:57.573Z,12.67
2023-01-04T21:55:27.123Z,12.67
2023-01-04T21:57:57.492Z,12.68
2023-01-04T22:00:23.975Z,12.72
2023-01-04T22:02:50.586Z,12.75
2023-01-04T22:05:18.091Z,12.75
2023-01-04T22:07:44.944Z,12.75
2023-01-04T22:10:11.383Z,12.74
2023-01-04T22:12:37.898Z,12.75
2023-01-04T22:15:04.751Z,12.72
2023-01-04T22:17:31.110Z,12.71
2023-01-04T22:19:57.639Z,12.65
2023-01-04T22:22:24.125Z,12.65
2023-01-04T22:24:51.594Z,12.65
2023-01-04T22:27:18.310Z,12.71
2023-01-04T22:29:46.325Z,12.68
2023-01-04T22:32:14.258Z,12.67
2023-01-04T22:34:40.664Z,12.68
2023-01-04T22:37:07.298Z,12.68
2023-01-04T22:39:33.763Z,12.64
2023-01-04T22:42:01.485Z,12.60
2023-01-04T22:44:28.010Z,12.63
2023-01-04T22:46:54.446Z,12.58
2023-01-04T22:49:20.930Z,12.60
2023-01-04T22:51:47.351Z,12.58
2023-01-04T22:54:13.851Z,12.60
2023-01-04T22:56:40.409Z,12.54
2023-01-04T22:59:06.891Z,12.51
2023-01-04T23:01:34.286Z,12.53
2023-01-04T23:04:03.960Z,12.47
2023-01-04T23:06:31.707Z,12.47
2023-01-04T23:09:01.136Z,12.43
2023-01-04T23:11:30.199Z,12.40
2023-01-04T23:13:56.925Z,12.41
2023-01-04T23:16:29.621Z,12.38
2023-01-04T23:18:58.702Z,12.34
2023-01-04T23:21:26.727Z,12.34
2023-01-04T23:23:53.226Z,12.37
2023-01-04T23:26:23.216Z,12.36
2023-01-04T23:28:50.870Z,12.28
2023-01-04T23:31:20.834Z,12.27
2023-01-04T23:33:51.017Z,12.27
2023-01-04T23:36:20.851Z,12.26
2023-01-04T23:38:51.637Z,12.24
2023-01-04T23:41:18.661Z,12.26
2023-01-04T23:43:45.261Z,12.21
2023-01-04T23:46:17.237Z,12.20
2023-01-04T23:48:44.517Z,12.23
2023-01-04T23:51:12.778Z,12.18
2023-01-04T23:53:39.765Z,12.26
2023-01-04T23:56:12.374Z,12.20
2023-01-04T23:58:38.905Z,12.18
